createdAt,value
2017-01-07T00:00:07.197Z,20.06
2017-01-07T00:01:16.171Z,20.01
2017-01-07T00:02:25.381Z,20.07
2017-01-07T00:03:34.646Z,20.04
2017-01-07T00:04:43.631Z,20.06
2017-01-07T00:05:52.914Z,20.01
2017-01-07T00:07:02.071Z,20
2017-01-07T00:08:11.051Z,19.98
2017-01-07T00:09:20.018Z,19.95
2017-01-07T00:10:29.074Z,19.92
2017-01-07T00:11:38.075Z,19.97
2017-01-07T00:12:47.245Z,19.98
2017-01-07T00:13:56.228Z,19.25
2017-01-07T00:15:05.217Z,17.38
2017-01-07T00:16:14.273Z,15.3
2017-01-07T00:17:23.264Z,14.49
2017-01-07T00:18:32.242Z,15.24
2017-01-07T00:19:41.236Z,16.38
2017-01-07T00:20:50.210Z,16.99
2017-01-07T00:21:59.179Z,17.4
2017-01-07T00:23:08.169Z,17.67
2017-01-07T00:24:17.177Z,17.85
2017-01-07T00:25:26.195Z,18.03
2017-01-07T00:26:35.174Z,18.09
2017-01-07T00:27:44.170Z,18.19
2017-01-07T00:28:53.149Z,18.17
2017-01-07T00:30:02.128Z,18.24
2017-01-07T00:31:11.102Z,18.32
2017-01-07T00:32:20.081Z,18.34
2017-01-07T00:33:29.054Z,18.28
2017-01-07T00:34:38.019Z,18.34
2017-01-07T00:35:47.000Z,18.31
2017-01-07T00:36:55.978Z,18.43
2017-01-07T00:38:04.957Z,18.39
2017-01-07T00:39:13.927Z,18.4
2017-01-07T00:40:22.897Z,18.4
2017-01-07T00:41:31.881Z,18.39
2017-01-07T00:42:40.850Z,18.43
2017-01-07T00:43:49.825Z,18.43
2017-01-07T00:44:58.799Z,18.39
2017-01-07T00:46:07.786Z,18.4
2017-01-07T00:47:16.765Z,18.4
2017-01-07T00:48:25.746Z,18.43
2017-01-07T00:49:34.720Z,18.43
2017-01-07T00:50:43.724Z,18.51
2017-01-07T00:51:52.708Z,18.39
2017-01-07T00:53:01.687Z,18.47
2017-01-07T00:54:10.673Z,18.43
2017-01-07T00:55:19.645Z,18.49
2017-01-07T00:56:28.606Z,18.42
2017-01-07T00:57:37.598Z,18.44
2017-01-07T00:58:46.577Z,18.42
2017-01-07T00:59:55.543Z,18.43
2017-01-07T01:01:04.522Z,18.44
2017-01-07T01:02:13.500Z,18.44
2017-01-07T01:03:22.526Z,18.44
2017-01-07T01:04:31.577Z,18.39
2017-01-07T01:05:40.563Z,18.35
2017-01-07T01:06:49.539Z,18.35
2017-01-07T01:07:58.507Z,18.4
2017-01-07T01:09:07.496Z,18.28
2017-01-07T01:10:16.473Z,18.35
2017-01-07T01:11:25.470Z,18.35
2017-01-07T01:12:34.441Z,18.36
2017-01-07T01:13:43.425Z,18.42
2017-01-07T01:14:52.409Z,18.35
2017-01-07T01:16:01.395Z,18.36
2017-01-07T01:17:10.375Z,18.35
2017-01-07T01:18:19.362Z,18.25
2017-01-07T01:19:28.348Z,18.36
2017-01-07T01:20:37.316Z,18.29
2017-01-07T01:21:46.297Z,18.32
2017-01-07T01:22:55.401Z,18.26
2017-01-07T01:24:04.369Z,18.28
2017-01-07T01:25:13.396Z,18.26
2017-01-07T01:26:22.372Z,18.29
2017-01-07T01:27:31.351Z,18.28
2017-01-07T01:28:40.322Z,18.31
2017-01-07T01:29:49.304Z,18.28
2017-01-07T01:30:58.377Z,18.28
2017-01-07T01:32:07.403Z,18.24
2017-01-07T01:33:16.374Z,18.22
2017-01-07T01:34:25.344Z,18.19
2017-01-07T01:35:34.316Z,18.21
2017-01-07T01:36:43.287Z,18.21
2017-01-07T01:37:52.264Z,18.25
2017-01-07T01:39:01.237Z,18.17
2017-01-07T01:40:10.223Z,18.22
2017-01-07T01:41:19.248Z,18.26
2017-01-07T01:42:28.221Z,18.13
2017-01-07T01:43:37.260Z,18.16
2017-01-07T01:44:46.243Z,18.21
2017-01-07T01:45:55.215Z,18.19
2017-01-07T01:47:04.213Z,18.17
2017-01-07T01:48:13.182Z,18.17
2017-01-07T01:49:22.153Z,18.17
2017-01-07T01:50:31.136Z,18.13
2017-01-07T01:51:40.148Z,18.11
2017-01-07T01:52:49.122Z,18.11
2017-01-07T01:53:58.109Z,18.17
2017-01-07T01:55:07.088Z,18.16
2017-01-07T01:56:16.062Z,18.06
2017-01-07T01:57:25.027Z,18.16
2017-01-07T01:58:34.012Z,18.02
2017-01-07T01:59:42.986Z,18.06
2017-01-07T02:00:51.970Z,18.04
2017-01-07T02:02:00.934Z,18.04
2017-01-07T02:03:09.928Z,18.1
2017-01-07T02:04:18.913Z,18.03
2017-01-07T02:05:27.884Z,18.07
2017-01-07T02:06:36.860Z,18.19
2017-01-07T02:07:45.836Z,18.04
2017-01-07T02:08:54.821Z,17.98
2017-01-07T02:10:03.789Z,17.98
2017-01-07T02:11:13.602Z,17.95
2017-01-07T02:12:22.584Z,18.06
2017-01-07T02:13:31.564Z,18.02
2017-01-07T02:14:40.530Z,18.03
2017-01-07T02:15:49.507Z,18.06
2017-01-07T02:16:58.472Z,18.04
2017-01-07T02:18:07.459Z,18.03
2017-01-07T02:19:16.450Z,17.98
2017-01-07T02:20:25.418Z,17.96
2017-01-07T02:21:34.382Z,17.98
2017-01-07T02:22:43.362Z,18.02
2017-01-07T02:23:52.357Z,17.95
2017-01-07T02:25:01.349Z,17.89
2017-01-07T02:26:10.328Z,17.91
2017-01-07T02:27:19.294Z,17.95
2017-01-07T02:28:28.271Z,17.91
2017-01-07T02:29:37.246Z,17.91
2017-01-07T02:30:46.222Z,17.96
2017-01-07T02:31:55.210Z,17.95
2017-01-07T02:33:04.191Z,17.88
2017-01-07T02:34:13.159Z,17.86
2017-01-07T02:35:22.428Z,17.94
2017-01-07T02:36:31.441Z,17.86
2017-01-07T02:37:40.415Z,17.84
2017-01-07T02:38:49.388Z,17.99
2017-01-07T02:39:58.367Z,17.91
2017-01-07T02:41:07.346Z,17.92
2017-01-07T02:42:16.316Z,17.88
2017-01-07T02:43:25.299Z,17.89
2017-01-07T02:44:34.261Z,17.86
2017-01-07T02:45:43.234Z,17.88
2017-01-07T02:46:52.212Z,17.99
2017-01-07T02:48:01.186Z,17.77
2017-01-07T02:49:10.274Z,17.92
2017-01-07T02:50:19.245Z,17.85
2017-01-07T02:51:28.232Z,17.86
2017-01-07T02:52:37.200Z,17.91
2017-01-07T02:53:46.188Z,17.84
2017-01-07T02:54:55.163Z,17.95
2017-01-07T02:56:04.163Z,17.99
2017-01-07T02:57:13.141Z,17.92
2017-01-07T02:58:22.131Z,17.84
2017-01-07T02:59:31.102Z,17.86
2017-01-07T03:00:40.093Z,17.85
2017-01-07T03:01:49.070Z,17.88
2017-01-07T03:02:58.053Z,17.85
2017-01-07T03:04:07.035Z,17.86
2017-01-07T03:05:16.009Z,17.85
2017-01-07T03:06:24.987Z,17.86
2017-01-07T03:07:33.973Z,17.8
2017-01-07T03:08:42.963Z,17.91
2017-01-07T03:09:51.946Z,17.88
2017-01-07T03:11:00.932Z,17.85
2017-01-07T03:12:09.903Z,17.86
2017-01-07T03:13:18.890Z,17.85
2017-01-07T03:14:27.872Z,17.84
2017-01-07T03:15:36.903Z,17.89
2017-01-07T03:16:45.896Z,17.85
2017-01-07T03:17:54.862Z,17.8
2017-01-07T03:19:03.837Z,17.88
2017-01-07T03:20:12.818Z,17.84
2017-01-07T03:21:21.785Z,17.84
2017-01-07T03:22:30.765Z,17.82
2017-01-07T03:23:39.741Z,17.86
2017-01-07T03:24:48.708Z,17.76
2017-01-07T03:25:57.675Z,17.85
2017-01-07T03:27:06.731Z,17.82
2017-01-07T03:28:15.720Z,17.76
2017-01-07T03:29:24.694Z,17.79
2017-01-07T03:30:33.667Z,17.76
2017-01-07T03:31:42.639Z,17.77
2017-01-07T03:32:51.621Z,17.77
2017-01-07T03:34:00.603Z,17.77
2017-01-07T03:35:09.589Z,17.79
2017-01-07T03:36:18.568Z,17.8
2017-01-07T03:37:27.540Z,17.79
2017-01-07T03:38:36.509Z,17.74
2017-01-07T03:39:45.480Z,17.79
2017-01-07T03:40:54.458Z,17.79
2017-01-07T03:42:03.433Z,17.8
2017-01-07T03:43:12.413Z,17.76
2017-01-07T03:44:21.390Z,17.7
2017-01-07T03:45:30.372Z,17.8
2017-01-07T03:46:39.353Z,17.79
2017-01-07T03:47:48.324Z,17.73
2017-01-07T03:48:57.302Z,17.79
2017-01-07T03:50:06.265Z,17.76
2017-01-07T03:51:15.268Z,17.77
2017-01-07T03:52:24.262Z,17.77
2017-01-07T03:53:33.235Z,17.73
2017-01-07T03:54:42.211Z,17.73
2017-01-07T03:55:51.197Z,17.71
2017-01-07T03:57:00.176Z,17.71
2017-01-07T03:58:09.155Z,17.71
2017-01-07T03:59:18.139Z,17.69
2017-01-07T04:00:27.105Z,17.74
2017-01-07T04:01:36.113Z,17.76
2017-01-07T04:02:45.083Z,17.77
2017-01-07T04:03:54.061Z,17.67
2017-01-07T04:05:03.043Z,17.57
2017-01-07T04:06:12.023Z,17.64
2017-01-07T04:07:21.001Z,17.66
2017-01-07T04:08:29.970Z,17.62
2017-01-07T04:09:38.954Z,17.6
2017-01-07T04:10:47.931Z,17.57
2017-01-07T04:11:56.911Z,17.62
2017-01-07T04:13:05.907Z,17.64
2017-01-07T04:14:14.890Z,17.64
2017-01-07T04:15:23.856Z,17.62
2017-01-07T04:16:32.838Z,17.67
2017-01-07T04:17:41.816Z,17.64
2017-01-07T04:18:50.787Z,17.7
2017-01-07T04:19:59.763Z,17.62
2017-01-07T04:21:08.742Z,17.64
2017-01-07T04:22:17.726Z,17.73
2017-01-07T04:23:26.709Z,17.57
2017-01-07T04:24:35.697Z,17.66
2017-01-07T04:25:44.668Z,17.64
2017-01-07T04:26:53.650Z,17.64
2017-01-07T04:28:02.622Z,17.57
2017-01-07T04:29:11.599Z,17.57
2017-01-07T04:30:20.580Z,17.6
2017-01-07T04:31:29.552Z,17.57
2017-01-07T04:32:38.528Z,17.67
2017-01-07T04:33:47.506Z,17.66
2017-01-07T04:34:56.478Z,17.57
2017-01-07T04:36:05.451Z,17.58
2017-01-07T04:37:14.436Z,17.58
2017-01-07T04:38:23.407Z,17.64
2017-01-07T04:39:32.381Z,17.54
2017-01-07T04:40:41.372Z,17.64
2017-01-07T04:41:50.395Z,17.53
2017-01-07T04:42:59.372Z,17.54
2017-01-07T04:44:08.347Z,17.55
2017-01-07T04:45:17.321Z,17.53
2017-01-07T04:46:26.302Z,17.64
2017-01-07T04:47:35.301Z,17.66
2017-01-07T04:48:44.279Z,17.57
2017-01-07T04:49:53.275Z,17.54
2017-01-07T04:51:02.261Z,17.6
2017-01-07T04:52:11.237Z,17.6
2017-01-07T04:53:20.201Z,17.53
2017-01-07T04:54:29.596Z,17.57
2017-01-07T04:55:38.564Z,17.57
2017-01-07T04:56:47.540Z,17.51
2017-01-07T04:57:56.514Z,17.55
2017-01-07T04:59:05.526Z,17.5
2017-01-07T05:00:14.728Z,17.53
2017-01-07T05:01:23.703Z,17.54
2017-01-07T05:02:32.682Z,17.5
2017-01-07T05:03:41.659Z,17.5
2017-01-07T05:04:50.636Z,17.57
2017-01-07T05:05:59.612Z,17.6
2017-01-07T05:07:08.584Z,17.54
2017-01-07T05:08:17.579Z,17.54
2017-01-07T05:09:26.547Z,17.6
2017-01-07T05:10:35.529Z,17.6
2017-01-07T05:11:44.505Z,17.51
2017-01-07T05:12:53.474Z,17.45
2017-01-07T05:14:02.460Z,17.51
2017-01-07T05:15:11.420Z,17.54
2017-01-07T05:16:20.400Z,17.55
2017-01-07T05:17:29.370Z,17.67
2017-01-07T05:18:38.354Z,17.58
2017-01-07T05:19:47.321Z,17.66
2017-01-07T05:20:56.314Z,17.6
2017-01-07T05:22:05.287Z,17.66
2017-01-07T05:23:14.265Z,17.58
2017-01-07T05:24:23.239Z,17.57
2017-01-07T05:25:32.219Z,17.53
2017-01-07T05:26:41.198Z,17.54
2017-01-07T05:27:50.176Z,17.57
2017-01-07T05:28:59.147Z,17.5
2017-01-07T05:30:08.545Z,17.53
2017-01-07T05:31:17.521Z,17.5
2017-01-07T05:32:26.510Z,17.57
2017-01-07T05:33:35.482Z,17.47
2017-01-07T05:34:44.468Z,17.55
2017-01-07T05:35:53.436Z,17.5
2017-01-07T05:37:02.403Z,17.57
2017-01-07T05:38:11.383Z,17.5
2017-01-07T05:39:20.357Z,17.51
2017-01-07T05:40:29.340Z,17.45
2017-01-07T05:41:38.310Z,17.5
2017-01-07T05:42:47.289Z,17.5
2017-01-07T05:43:56.298Z,17.54
2017-01-07T05:45:05.282Z,17.54
2017-01-07T05:46:14.262Z,17.54
2017-01-07T05:47:23.249Z,17.57
2017-01-07T05:48:32.225Z,17.54
2017-01-07T05:49:41.197Z,17.54
2017-01-07T05:50:50.203Z,17.55
2017-01-07T05:51:59.185Z,17.48
2017-01-07T05:53:08.172Z,17.53
2017-01-07T05:54:17.143Z,17.58
2017-01-07T05:55:26.116Z,17.53
2017-01-07T05:56:35.147Z,17.53
2017-01-07T05:57:44.120Z,17.53
2017-01-07T05:58:53.098Z,17.44
2017-01-07T06:00:02.094Z,17.45
2017-01-07T06:01:11.065Z,17.55
2017-01-07T06:02:20.048Z,17.53
2017-01-07T06:03:29.027Z,17.5
2017-01-07T06:04:38.006Z,17.5
2017-01-07T06:05:46.988Z,17.47
2017-01-07T06:06:55.970Z,17.45
2017-01-07T06:08:04.944Z,17.53
2017-01-07T06:09:13.923Z,17.51
2017-01-07T06:10:22.897Z,17.48
2017-01-07T06:11:31.864Z,17.57
2017-01-07T06:12:41.265Z,17.58
2017-01-07T06:13:50.255Z,17.54
2017-01-07T06:14:59.221Z,17.45
2017-01-07T06:16:08.197Z,17.51
2017-01-07T06:17:17.180Z,17.57
2017-01-07T06:18:26.154Z,17.53
2017-01-07T06:19:35.125Z,17.57
2017-01-07T06:20:44.103Z,17.55
2017-01-07T06:21:53.085Z,17.58
2017-01-07T06:23:02.061Z,17.51
2017-01-07T06:24:11.042Z,17.58
2017-01-07T06:25:20.011Z,17.57
2017-01-07T06:26:28.998Z,17.55
2017-01-07T06:27:37.972Z,17.54
2017-01-07T06:28:46.955Z,17.6
2017-01-07T06:29:55.938Z,17.54
2017-01-07T06:31:04.921Z,17.67
2017-01-07T06:32:13.893Z,17.7
2017-01-07T06:33:22.868Z,17.58
2017-01-07T06:34:31.844Z,17.64
2017-01-07T06:35:40.834Z,17.54
2017-01-07T06:36:49.806Z,17.55
2017-01-07T06:37:58.779Z,17.57
2017-01-07T06:39:07.751Z,17.55
2017-01-07T06:40:16.727Z,17.6
2017-01-07T06:41:25.700Z,17.64
2017-01-07T06:42:34.672Z,17.51
2017-01-07T06:43:43.651Z,17.57
2017-01-07T06:44:52.629Z,17.54
2017-01-07T06:46:01.616Z,17.54
2017-01-07T06:47:10.607Z,17.58
2017-01-07T06:48:19.595Z,17.55
2017-01-07T06:49:28.559Z,17.54
2017-01-07T06:50:37.527Z,17.54
2017-01-07T06:51:46.507Z,17.51
2017-01-07T06:52:55.487Z,17.51
2017-01-07T06:54:04.455Z,17.54
2017-01-07T06:55:13.444Z,17.54
2017-01-07T06:56:22.415Z,17.54
2017-01-07T06:57:31.382Z,17.45
2017-01-07T06:58:40.358Z,17.55
2017-01-07T06:59:49.328Z,17.51
2017-01-07T07:00:58.324Z,17.53
2017-01-07T07:02:07.294Z,17.57
2017-01-07T07:03:16.273Z,17.53
2017-01-07T07:04:25.243Z,17.51
2017-01-07T07:05:34.214Z,17.51
2017-01-07T07:06:43.182Z,17.44
2017-01-07T07:07:52.175Z,17.53
2017-01-07T07:09:01.152Z,17.48
2017-01-07T07:10:10.128Z,17.51
2017-01-07T07:11:19.108Z,17.48
2017-01-07T07:12:28.083Z,17.54
2017-01-07T07:13:37.068Z,17.51
2017-01-07T07:14:46.039Z,17.48
2017-01-07T07:15:55.016Z,17.5
2017-01-07T07:17:03.993Z,17.53
2017-01-07T07:18:12.966Z,17.53
2017-01-07T07:19:21.930Z,17.53
2017-01-07T07:20:30.899Z,17.58
2017-01-07T07:21:39.883Z,17.51
2017-01-07T07:22:48.854Z,17.53
2017-01-07T07:23:57.843Z,17.48
2017-01-07T07:25:06.817Z,17.45
2017-01-07T07:26:15.801Z,17.45
2017-01-07T07:27:24.769Z,17.44
2017-01-07T07:28:33.743Z,17.51
2017-01-07T07:29:42.714Z,17.54
2017-01-07T07:30:51.695Z,17.54
2017-01-07T07:32:00.667Z,17.42
2017-01-07T07:33:09.644Z,17.42
2017-01-07T07:34:18.652Z,17.4
2017-01-07T07:35:27.640Z,17.47
2017-01-07T07:36:37.028Z,17.45
2017-01-07T07:37:46.017Z,17.47
2017-01-07T07:38:54.989Z,17.42
2017-01-07T07:40:03.971Z,17.5
2017-01-07T07:41:12.938Z,17.48
2017-01-07T07:42:21.916Z,17.45
2017-01-07T07:43:30.898Z,17.5
2017-01-07T07:44:39.881Z,17.47
2017-01-07T07:45:48.850Z,17.47
2017-01-07T07:46:57.829Z,17.51
2017-01-07T07:48:06.866Z,17.5
2017-01-07T07:49:15.881Z,17.54
2017-01-07T07:50:24.867Z,17.5
2017-01-07T07:51:33.844Z,17.57
2017-01-07T07:52:42.815Z,17.47
2017-01-07T07:53:51.793Z,17.48
2017-01-07T07:55:00.764Z,17.5
2017-01-07T07:56:09.756Z,17.45
2017-01-07T07:57:18.759Z,17.53
2017-01-07T07:58:27.735Z,17.55
2017-01-07T07:59:36.717Z,17.5
2017-01-07T08:00:45.689Z,17.48
2017-01-07T08:01:54.673Z,17.58
2017-01-07T08:03:03.665Z,17.57
2017-01-07T08:04:12.639Z,17.62
2017-01-07T08:05:21.618Z,17.6
2017-01-07T08:06:30.584Z,17.6
2017-01-07T08:07:39.567Z,17.77
2017-01-07T08:08:48.542Z,17.74
2017-01-07T08:09:57.529Z,17.76
2017-01-07T08:11:06.516Z,17.86
2017-01-07T08:12:15.483Z,17.91
2017-01-07T08:13:24.465Z,17.88
2017-01-07T08:14:33.439Z,17.86
2017-01-07T08:15:42.413Z,17.82
2017-01-07T08:16:51.398Z,17.8
2017-01-07T08:18:00.380Z,17.96
2017-01-07T08:19:09.371Z,17.92
2017-01-07T08:20:18.338Z,17.91
2017-01-07T08:21:27.329Z,18.06
2017-01-07T08:22:36.298Z,18.04
2017-01-07T08:23:45.281Z,17.98
2017-01-07T08:24:54.259Z,17.99
2017-01-07T08:26:03.234Z,17.95
2017-01-07T08:27:12.220Z,17.91
2017-01-07T08:28:21.205Z,18.02
2017-01-07T08:29:30.176Z,17.96
2017-01-07T08:30:39.156Z,17.96
2017-01-07T08:31:48.136Z,17.95
2017-01-07T08:32:57.119Z,17.92
2017-01-07T08:34:06.084Z,17.94
2017-01-07T08:35:15.076Z,17.95
2017-01-07T08:36:24.054Z,17.82
2017-01-07T08:37:33.038Z,17.91
2017-01-07T08:38:42.014Z,17.95
2017-01-07T08:39:50.990Z,17.91
2017-01-07T08:40:59.971Z,17.92
2017-01-07T08:42:08.947Z,17.95
2017-01-07T08:43:17.938Z,17.95
2017-01-07T08:44:26.904Z,17.96
2017-01-07T08:45:35.914Z,17.94
2017-01-07T08:46:44.875Z,17.96
2017-01-07T08:47:53.840Z,17.98
2017-01-07T08:49:02.820Z,17.98
2017-01-07T08:50:11.797Z,17.91
2017-01-07T08:51:20.781Z,18.06
2017-01-07T08:52:29.754Z,18.02
2017-01-07T08:53:38.729Z,17.94
2017-01-07T08:54:47.713Z,17.99
2017-01-07T08:55:56.691Z,17.98
2017-01-07T08:57:05.674Z,17.98
2017-01-07T08:58:14.642Z,17.95
2017-01-07T08:59:23.628Z,17.94
2017-01-07T09:00:32.597Z,17.99
2017-01-07T09:01:41.584Z,17.95
2017-01-07T09:02:50.558Z,18.03
2017-01-07T09:03:59.527Z,17.98
2017-01-07T09:05:08.498Z,17.94
2017-01-07T09:06:17.483Z,18.03
2017-01-07T09:07:26.474Z,18.04
2017-01-07T09:08:35.455Z,18.13
2017-01-07T09:09:44.432Z,18.17
2017-01-07T09:10:53.399Z,18.19
2017-01-07T09:12:02.432Z,18.26
2017-01-07T09:13:11.428Z,18.29
2017-01-07T09:14:20.399Z,18.17
2017-01-07T09:15:29.379Z,18.28
2017-01-07T09:16:38.339Z,18.24
2017-01-07T09:17:47.325Z,18.35
2017-01-07T09:18:56.307Z,18.35
2017-01-07T09:20:05.290Z,18.29
2017-01-07T09:21:15.118Z,18.39
2017-01-07T09:22:25.232Z,18.47
2017-01-07T09:23:36.816Z,18.54
2017-01-07T09:24:45.789Z,18.54
2017-01-07T09:25:54.784Z,18.58
2017-01-07T09:27:03.768Z,18.61
2017-01-07T09:28:12.732Z,18.65
2017-01-07T09:29:21.719Z,18.71
2017-01-07T09:30:30.695Z,18.72
2017-01-07T09:31:39.673Z,18.59
2017-01-07T09:32:48.669Z,18.61
2017-01-07T09:33:57.647Z,18.58
2017-01-07T09:35:06.614Z,18.66
2017-01-07T09:36:15.594Z,18.69
2017-01-07T09:37:24.568Z,18.76
2017-01-07T09:38:33.542Z,18.71
2017-01-07T09:39:42.530Z,18.76
2017-01-07T09:40:51.506Z,18.72
2017-01-07T09:42:00.505Z,18.74
2017-01-07T09:43:09.483Z,18.77
2017-01-07T09:44:18.458Z,18.86
2017-01-07T09:45:27.438Z,18.83
2017-01-07T09:46:36.409Z,18.83
2017-01-07T09:47:45.814Z,18.89
2017-01-07T09:48:54.784Z,18.9
2017-01-07T09:50:03.757Z,18.95
2017-01-07T09:51:12.741Z,18.95
2017-01-07T09:52:21.718Z,18.98
2017-01-07T09:53:30.691Z,18.97
2017-01-07T09:54:39.667Z,18.94
2017-01-07T09:55:48.638Z,18.95
2017-01-07T09:56:57.622Z,19.02
2017-01-07T09:58:06.607Z,19.12
2017-01-07T09:59:15.690Z,19.05
2017-01-07T10:00:24.666Z,19.05
2017-01-07T10:01:33.648Z,19.14
2017-01-07T10:02:42.628Z,19.15
2017-01-07T10:03:51.600Z,19.22
2017-01-07T10:05:00.606Z,19.2
2017-01-07T10:06:09.573Z,19.39
2017-01-07T10:07:18.661Z,19.36
2017-01-07T10:08:27.637Z,19.39
2017-01-07T10:09:36.620Z,19.43
2017-01-07T10:10:45.594Z,19.46
2017-01-07T10:11:54.571Z,19.57
2017-01-07T10:13:03.961Z,19.58
2017-01-07T10:14:13.346Z,19.61
2017-01-07T10:15:22.336Z,19.62
2017-01-07T10:16:31.316Z,19.5
2017-01-07T10:17:40.302Z,19.43
2017-01-07T10:18:49.293Z,19.37
2017-01-07T10:19:58.275Z,19.36
2017-01-07T10:21:07.353Z,19.35
2017-01-07T10:22:16.333Z,19.3
2017-01-07T10:23:25.311Z,19.35
2017-01-07T10:24:34.297Z,19.27
2017-01-07T10:25:43.288Z,19.37
2017-01-07T10:26:52.272Z,19.4
2017-01-07T10:28:01.242Z,19.3
2017-01-07T10:29:10.278Z,19.37
2017-01-07T10:30:19.268Z,19.43
2017-01-07T10:31:28.237Z,19.42
2017-01-07T10:32:37.216Z,19.45
2017-01-07T10:33:46.206Z,19.43
2017-01-07T10:34:55.182Z,19.46
2017-01-07T10:36:04.173Z,19.43
2017-01-07T10:37:13.143Z,19.45
2017-01-07T10:38:22.121Z,19.51
2017-01-07T10:39:31.133Z,19.45
2017-01-07T10:40:40.128Z,19.57
2017-01-07T10:41:49.102Z,19.55
2017-01-07T10:42:58.091Z,19.57
2017-01-07T10:44:07.057Z,19.55
2017-01-07T10:45:16.046Z,19.61
2017-01-07T10:46:25.034Z,19.67
2017-01-07T10:47:34.037Z,19.73
2017-01-07T10:48:43.013Z,19.73
2017-01-07T10:49:51.983Z,19.76
2017-01-07T10:51:00.970Z,19.76
2017-01-07T10:52:09.953Z,19.8
2017-01-07T10:53:18.958Z,19.88
2017-01-07T10:54:27.948Z,19.73
2017-01-07T10:55:36.932Z,19.76
2017-01-07T10:56:45.923Z,19.72
2017-01-07T10:57:54.906Z,19.72
2017-01-07T10:59:03.898Z,19.7
2017-01-07T11:00:13.071Z,19.67
2017-01-07T11:01:22.062Z,19.21
2017-01-07T11:02:31.040Z,18.68
2017-01-07T11:03:40.011Z,18.8
2017-01-07T11:04:48.996Z,18.65
2017-01-07T11:05:57.972Z,18.07
2017-01-07T11:07:06.966Z,17.62
2017-01-07T11:08:15.945Z,17.4
2017-01-07T11:09:24.923Z,17.54
2017-01-07T11:10:33.935Z,17.89
2017-01-07T11:11:42.922Z,18.28
2017-01-07T11:12:51.897Z,18.44
2017-01-07T11:14:00.880Z,18.71
2017-01-07T11:15:09.861Z,18.81
2017-01-07T11:16:18.836Z,18.94
2017-01-07T11:17:27.821Z,18.95
2017-01-07T11:18:36.815Z,18.97
2017-01-07T11:19:45.799Z,18.94
2017-01-07T11:20:54.777Z,18.97
2017-01-07T11:22:03.765Z,18.98
2017-01-07T11:23:12.748Z,18.99
2017-01-07T11:24:21.730Z,19.07
2017-01-07T11:25:30.723Z,19.06
2017-01-07T11:26:39.704Z,19.01
2017-01-07T11:27:48.677Z,19.01
2017-01-07T11:28:57.700Z,19.06
2017-01-07T11:30:06.689Z,19.05
2017-01-07T11:31:15.668Z,19.15
2017-01-07T11:32:24.676Z,19.06
2017-01-07T11:33:33.648Z,19.14
2017-01-07T11:34:42.641Z,19.18
2017-01-07T11:35:51.619Z,19.2
2017-01-07T11:37:00.634Z,19.22
2017-01-07T11:38:09.612Z,19.07
2017-01-07T11:39:18.591Z,19.12
2017-01-07T11:40:27.556Z,19.21
2017-01-07T11:41:36.533Z,19.22
2017-01-07T11:42:45.540Z,19.12
2017-01-07T11:43:54.516Z,19.22
2017-01-07T11:45:03.528Z,19.18
2017-01-07T11:46:12.504Z,19.21
2017-01-07T11:47:21.483Z,19.12
2017-01-07T11:48:30.476Z,19.1
2017-01-07T11:49:39.446Z,19.22
2017-01-07T11:50:48.442Z,19.22
2017-01-07T11:51:57.415Z,19.27
2017-01-07T11:53:06.403Z,19.25
2017-01-07T11:54:15.375Z,19.3
2017-01-07T11:55:24.385Z,19.21
2017-01-07T11:56:33.365Z,19.24
2017-01-07T11:57:42.375Z,19.33
2017-01-07T11:58:51.351Z,19.33
2017-01-07T12:00:00.327Z,19.4
2017-01-07T12:01:09.453Z,19.37
2017-01-07T12:02:18.444Z,19.27
2017-01-07T12:03:27.415Z,19.36
2017-01-07T12:04:36.406Z,19.3
2017-01-07T12:05:45.382Z,19.3
2017-01-07T12:06:54.376Z,19.28
2017-01-07T12:08:03.362Z,19.36
2017-01-07T12:09:12.488Z,19.28
2017-01-07T12:10:21.480Z,19.32
2017-01-07T12:11:30.462Z,19.17
2017-01-07T12:12:39.536Z,19.2
2017-01-07T12:13:48.516Z,19.07
2017-01-07T12:14:57.495Z,19.22
2017-01-07T12:16:06.481Z,19.21
2017-01-07T12:17:15.460Z,19.28
2017-01-07T12:18:24.446Z,19.21
2017-01-07T12:19:33.436Z,19.25
2017-01-07T12:20:42.476Z,19.32
2017-01-07T12:21:51.450Z,19.28
2017-01-07T12:23:00.429Z,19.27
2017-01-07T12:24:09.419Z,19.22
2017-01-07T12:25:18.419Z,19.39
2017-01-07T12:26:27.393Z,19.28
2017-01-07T12:27:36.372Z,19.32
2017-01-07T12:28:45.342Z,19.4
2017-01-07T12:29:54.444Z,19.28
2017-01-07T12:31:03.438Z,19.25
2017-01-07T12:32:12.430Z,19.3
2017-01-07T12:33:21.411Z,19.28
2017-01-07T12:34:30.398Z,19.35
2017-01-07T12:35:39.379Z,19.28
2017-01-07T12:36:48.358Z,19.35
2017-01-07T12:37:57.342Z,19.35
2017-01-07T12:39:06.307Z,19.43
2017-01-07T12:40:15.277Z,19.45
2017-01-07T12:41:24.287Z,19.42
2017-01-07T12:42:33.266Z,19.45
2017-01-07T12:43:42.260Z,19.46
2017-01-07T12:44:51.259Z,19.39
2017-01-07T12:46:00.240Z,19.43
2017-01-07T12:47:09.208Z,19.47
2017-01-07T12:48:18.204Z,19.42
2017-01-07T12:49:27.171Z,19.42
2017-01-07T12:50:36.270Z,19.43
2017-01-07T12:51:45.243Z,19.47
2017-01-07T12:52:54.219Z,19.47
2017-01-07T12:54:03.697Z,19.45
2017-01-07T12:55:12.675Z,19.43
2017-01-07T12:56:21.647Z,19.5
2017-01-07T12:57:30.638Z,19.43
2017-01-07T12:58:39.630Z,19.47
2017-01-07T12:59:48.611Z,19.5
2017-01-07T13:00:57.583Z,19.45
2017-01-07T13:02:06.557Z,19.47
2017-01-07T13:03:15.534Z,19.43
2017-01-07T13:04:24.516Z,19.42
2017-01-07T13:05:33.511Z,19.46
2017-01-07T13:06:42.485Z,19.43
2017-01-07T13:07:51.611Z,19.45
2017-01-07T13:09:00.651Z,19.5
2017-01-07T13:10:09.642Z,19.46
2017-01-07T13:11:18.622Z,19.43
2017-01-07T13:12:27.608Z,19.5
2017-01-07T13:13:36.586Z,19.5
2017-01-07T13:14:45.638Z,19.5
2017-01-07T13:15:54.914Z,19.58
2017-01-07T13:17:04.138Z,19.67
2017-01-07T13:18:13.142Z,19.67
2017-01-07T13:19:22.121Z,19.65
2017-01-07T13:20:31.114Z,19.6
2017-01-07T13:21:40.094Z,19.54
2017-01-07T13:22:49.073Z,19.6
2017-01-07T13:23:58.082Z,19.53
2017-01-07T13:25:07.047Z,19.62
2017-01-07T13:26:16.058Z,19.67
2017-01-07T13:27:25.036Z,19.64
2017-01-07T13:28:34.009Z,19.72
2017-01-07T13:29:42.990Z,19.72
2017-01-07T13:30:51.967Z,19.73
2017-01-07T13:32:00.943Z,19.72
2017-01-07T13:33:09.921Z,19.76
2017-01-07T13:34:18.909Z,19.83
2017-01-07T13:35:27.882Z,19.79
2017-01-07T13:36:36.861Z,19.85
2017-01-07T13:37:45.840Z,19.88
2017-01-07T13:38:54.822Z,19.88
2017-01-07T13:40:03.820Z,19.87
2017-01-07T13:41:12.789Z,19.9
2017-01-07T13:42:21.771Z,19.8
2017-01-07T13:43:30.753Z,19.91
2017-01-07T13:44:39.746Z,19.9
2017-01-07T13:45:48.732Z,19.76
2017-01-07T13:46:57.748Z,19.88
2017-01-07T13:48:06.727Z,19.92
2017-01-07T13:49:15.695Z,20
2017-01-07T13:50:25.011Z,20.06
2017-01-07T13:51:35.312Z,20.04
2017-01-07T13:52:44.384Z,20.13
2017-01-07T13:53:53.389Z,20.12
2017-01-07T13:55:03.358Z,20.17
2017-01-07T13:56:14.410Z,20.15
2017-01-07T13:57:24.152Z,20.17
2017-01-07T13:58:33.220Z,20.16
2017-01-07T13:59:42.244Z,20.16
2017-01-07T14:00:51.294Z,20.15
2017-01-07T14:02:00.291Z,20.1
2017-01-07T14:03:09.283Z,20.16
2017-01-07T14:04:18.252Z,20.2
2017-01-07T14:05:27.272Z,20.2
2017-01-07T14:06:36.240Z,20.24
2017-01-07T14:07:45.219Z,20.24
2017-01-07T14:08:54.201Z,20.13
2017-01-07T14:10:03.328Z,20.1
2017-01-07T14:11:12.320Z,20.16
2017-01-07T14:12:21.293Z,20.07
2017-01-07T14:13:30.267Z,20.1
2017-01-07T14:14:39.237Z,20.17
2017-01-07T14:15:48.244Z,20.17
2017-01-07T14:16:57.227Z,20.17
2017-01-07T14:18:06.240Z,20.17
2017-01-07T14:19:15.229Z,20.1
2017-01-07T14:20:24.873Z,20.25
2017-01-07T14:21:33.920Z,20.31
2017-01-07T14:22:44.129Z,20.35
2017-01-07T14:23:53.181Z,20.32
2017-01-07T14:25:02.191Z,20.38
2017-01-07T14:26:11.244Z,20.38
2017-01-07T14:27:20.469Z,20.38
2017-01-07T14:28:29.908Z,20.37
2017-01-07T14:29:39.024Z,20.48
2017-01-07T14:30:48.178Z,20.38
2017-01-07T14:31:57.157Z,20.32
2017-01-07T14:33:06.131Z,20.28
2017-01-07T14:34:15.105Z,20.25
2017-01-07T14:35:24.080Z,20.3
2017-01-07T14:36:33.054Z,20.3
2017-01-07T14:37:42.036Z,20.27
2017-01-07T14:38:51.005Z,20.1
2017-01-07T14:39:59.988Z,20.17
2017-01-07T14:41:08.969Z,20.24
2017-01-07T14:42:17.943Z,20.09
2017-01-07T14:43:26.925Z,20.15
2017-01-07T14:44:35.918Z,20.22
2017-01-07T14:45:44.909Z,20.2
2017-01-07T14:46:53.913Z,20.13
2017-01-07T14:48:02.903Z,20.13
2017-01-07T14:49:11.877Z,20.09
2017-01-07T14:50:20.899Z,20.17
2017-01-07T14:51:30.002Z,20.31